createdAt,value
2023-04-03T00:09:03.372Z,0.05
2023-04-03T00:13:55.099Z,0.04
2023-04-03T01:24:37.033Z,0.05
2023-04-03T01:26:39.796Z,0.04
2023-04-03T01:32:07.454Z,0.03
2023-04-03T02:48:13.856Z,0.02
2023-04-03T02:55:44.619Z,0.03
2023-04-03T02:58:28.516Z,0.02
2023-04-03T03:00:58.235Z,0.03
2023-04-03T03:03:14.131Z,0.02
2023-04-03T03:05:15.975Z,0.03
2023-04-03T03:08:05.882Z,0.02
2023-04-03T03:47:35.060Z,0.03
2023-04-03T03:52:20.113Z,0.02
2023-04-03T03:54:33.650Z,0.03
2023-04-03T04:04:14.235Z,0.04
2023-04-03T04:09:13.872Z,0.05
2023-04-03T04:11:53.602Z,0.07
2023-04-03T04:14:19.338Z,0.09
2023-04-03T04:16:31.219Z,0.13
2023-04-03T04:18:28.977Z,0.17
2023-04-03T04:21:14.966Z,0.25
2023-04-03T04:23:46.756Z,0.37
2023-04-03T04:26:04.762Z,0.53
2023-04-03T04:28:08.634Z,0.74
2023-04-03T04:31:00.866Z,1.19
2023-04-03T04:33:38.470Z,1.96
2023-04-03T04:36:02.592Z,3.21
2023-04-03T04:38:12.441Z,4.54
2023-04-03T04:41:10.905Z,7.52
2023-04-03T04:43:55.248Z,12.22
2023-04-03T04:46:25.471Z,16.68
2023-04-03T04:48:41.537Z,23.37
2023-04-03T04:50:43.936Z,29.5
2023-04-03T04:53:34.135Z,41.2
2023-04-03T04:56:10.429Z,51.84
2023-04-03T04:58:32.861Z,66.4
2023-04-03T05:00:41.134Z,79.2
2023-04-03T05:03:37.527Z,98.56
2023-04-03T05:06:20.045Z,130.96
2023-04-03T05:08:48.485Z,152.2
2023-04-03T05:11:03.098Z,185.3
2023-04-03T05:13:03.372Z,219.6
2023-04-03T05:15:52.156Z,241.6
2023-04-03T05:18:26.651Z,308.4
2023-04-03T05:20:47.292Z,353.2
2023-04-03T05:22:53.708Z,396
2023-04-03T05:25:48.030Z,433.6
2023-04-03T05:28:28.581Z,503.5
2023-04-03T05:30:55.266Z,524.6
2023-04-03T05:33:07.888Z,543.6
2023-04-03T05:35:06.256Z,589.7
2023-04-03T05:37:53.090Z,684.4
2023-04-03T05:40:25.820Z,749.1
2023-04-03T05:42:44.520Z,864
2023-04-03T05:44:49.209Z,927
2023-04-03T05:47:42.202Z,950.7
2023-04-03T05:50:21.115Z,1013.4
2023-04-03T05:52:46.133Z,1100.4
2023-04-03T05:54:56.858Z,1137.6
2023-04-03T05:56:53.630Z,1151.6
2023-04-03T05:59:38.604Z,1170.8
2023-04-03T06:02:09.685Z,959
2023-04-03T06:04:26.820Z,882.5
2023-04-03T06:06:29.592Z,853.7
2023-04-03T06:09:20.938Z,859.2
2023-04-03T06:11:58.152Z,872
2023-04-03T06:14:21.595Z,883.2
2023-04-03T06:16:30.238Z,898.5
2023-04-03T06:19:27.670Z,926.4
2023-04-03T06:22:11.046Z,956.4
2023-04-03T06:24:40.358Z,978.2
2023-04-03T06:26:55.522Z,1002.8
2023-04-03T06:28:56.750Z,1032.3
2023-04-03T06:31:46.318Z,1063.3
2023-04-03T06:34:21.810Z,1096.9
2023-04-03T06:36:43.122Z,1128
2023-04-03T06:38:50.422Z,1148.8
2023-04-03T06:41:46.266Z,1185.9
2023-04-03T06:44:27.719Z,1218.2
2023-04-03T06:46:55.237Z,1252.8
2023-04-03T06:49:08.623Z,1275.5
2023-04-03T06:51:08.086Z,1295
2023-04-03T06:53:55.836Z,1329.2
2023-04-03T06:56:29.339Z,1355.5
2023-04-03T06:58:48.935Z,1388.1
2023-04-03T07:00:54.412Z,1396.4
2023-04-03T07:03:48.130Z,1432.9
2023-04-03T07:06:28.258Z,1467.5
2023-04-03T07:08:53.328Z,1486
2023-04-03T07:11:04.947Z,1505.2
2023-04-03T07:13:02.810Z,1516.1
2023-04-03T07:15:48.752Z,1547.5
2023-04-03T07:18:20.551Z,1571.2
2023-04-03T07:20:38.326Z,1603.2
2023-04-03T07:22:42.339Z,1623
2023-04-03T07:25:34.361Z,1653
2023-04-03T07:28:12.317Z,1685
2023-04-03T07:30:36.402Z,1680
2023-04-03T07:32:46.474Z,1704
2023-04-03T07:35:45.188Z,1725
2023-04-03T07:38:43.442Z,1725
2023-04-03T07:40:58.979Z,1824
2023-04-03T07:43:15.016Z,1747
2023-04-03T07:45:17.247Z,1781
2023-04-03T07:48:07.603Z,1801
2023-04-03T07:50:44.342Z,1797
2023-04-03T07:53:06.017Z,1775
2023-04-03T07:55:14.314Z,1770
2023-04-03T07:58:10.803Z,1788
2023-04-03T08:00:52.704Z,1794
2023-04-03T08:03:21.230Z,1811
2023-04-03T08:05:35.485Z,1820
2023-04-03T08:07:35.531Z,1829
2023-04-03T08:10:24.143Z,1851
2023-04-03T08:12:58.625Z,1871
2023-04-03T08:15:19.055Z,1909
2023-04-03T08:17:25.640Z,1882
2023-04-03T08:20:20.354Z,1952
2023-04-03T08:23:01.012Z,1957
2023-04-03T08:25:27.526Z,2160
2023-04-03T08:27:40.235Z,2299
2023-04-03T08:29:38.810Z,2247
2023-04-03T08:32:25.578Z,2816
2023-04-03T08:34:58.338Z,2524
2023-04-03T08:37:17.086Z,2599
2023-04-03T08:39:21.529Z,3651
2023-04-03T08:42:14.506Z,2792
2023-04-03T08:44:55.176Z,2976
2023-04-03T08:47:18.100Z,2210
2023-04-03T08:49:28.948Z,2167
2023-04-03T08:51:25.225Z,2122
2023-04-03T08:54:10.112Z,2096
2023-04-03T08:56:40.872Z,2101
2023-04-03T08:58:57.760Z,2129
2023-04-03T09:01:00.605Z,2187
2023-04-03T09:03:51.586Z,2189
2023-04-03T09:06:28.588Z,2233
2023-04-03T09:08:51.542Z,2301
2023-04-03T09:11:00.333Z,1521.9
2023-04-03T09:13:57.493Z,2421
2023-04-03T09:16:40.608Z,2448
2023-04-03T09:19:09.727Z,2346
2023-04-03T09:21:24.563Z,2396
2023-04-03T09:23:25.585Z,2423
2023-04-03T09:26:14.740Z,2436
2023-04-03T09:28:51.006Z,2360
2023-04-03T09:31:11.062Z,1461.7
2023-04-03T09:33:18.157Z,1910
2023-04-03T09:36:13.380Z,3191
2023-04-03T09:38:54.681Z,2892
2023-04-03T09:41:21.951Z,2122
2023-04-03T09:43:34.617Z,2296
2023-04-03T09:45:33.913Z,4410
2023-04-03T09:48:21.229Z,5185
2023-04-03T09:50:54.367Z,3453
2023-04-03T09:53:13.485Z,3535
2023-04-03T09:55:18.816Z,3680
2023-04-03T09:58:12.210Z,3837
2023-04-03T10:00:51.614Z,2918
2023-04-03T10:03:17.020Z,2230
2023-04-03T10:05:28.398Z,4245
2023-04-03T10:07:25.728Z,2396
2023-04-03T10:10:11.314Z,1953
2023-04-03T10:12:42.836Z,3168
2023-04-03T10:15:00.229Z,4459
2023-04-03T10:17:03.864Z,4066
2023-04-03T10:19:55.526Z,3426
2023-04-03T10:22:33.134Z,4563
2023-04-03T10:24:56.644Z,2721
2023-04-03T10:27:06.283Z,2901
2023-04-03T10:30:04.080Z,2662
2023-04-03T10:32:47.804Z,2833
2023-04-03T10:35:17.114Z,2881
2023-04-03T10:37:32.769Z,3640
2023-04-03T10:39:34.416Z,3183
2023-04-03T10:42:24.367Z,3221
2023-04-03T10:45:00.150Z,3196
2023-04-03T10:47:21.925Z,3290
2023-04-03T10:49:29.828Z,1983
2023-04-03T10:52:25.769Z,1742
2023-04-03T10:55:07.639Z,2172
2023-04-03T10:57:35.475Z,2034
2023-04-03T10:59:49.468Z,1644
2023-04-03T11:01:49.335Z,3179
2023-04-03T11:04:37.256Z,1825
2023-04-03T11:07:11.368Z,2422
2023-04-03T11:09:31.362Z,3488
2023-04-03T11:11:37.318Z,3394
2023-04-03T11:14:31.552Z,2613
2023-04-03T11:17:11.717Z,2618
2023-04-03T11:19:37.812Z,3464
2023-04-03T11:21:49.850Z,3389
2023-04-03T11:23:49.819Z,4084
2023-04-03T11:26:33.845Z,3367
2023-04-03T11:29:05.948Z,3340
2023-04-03T11:31:24.264Z,2860
2023-04-03T11:33:28.464Z,3265
2023-04-03T11:36:27.603Z,3365
2023-04-03T11:38:59.116Z,3348
2023-04-03T11:41:23.443Z,3389
2023-04-03T11:43:33.708Z,2074
2023-04-03T11:45:30.202Z,1383.6
2023-04-03T11:48:24.386Z,3375
2023-04-03T11:50:45.134Z,3290
2023-04-03T11:53:01.465Z,3289
2023-04-03T11:55:03.927Z,3338
2023-04-03T11:57:54.519Z,3290
2023-04-03T12:00:31.066Z,3336
2023-04-03T12:02:54.881Z,3321
2023-04-03T12:05:02.246Z,3330
2023-04-03T12:07:58.797Z,3349
2023-04-03T12:10:41.656Z,3614
2023-04-03T12:13:10.441Z,3893
2023-04-03T12:15:24.967Z,3709
2023-04-03T12:17:25.330Z,3454
2023-04-03T12:20:14.051Z,3412
2023-04-03T12:22:48.722Z,3399
2023-04-03T12:25:09.578Z,3424
2023-04-03T12:27:16.208Z,1708
2023-04-03T12:30:11.428Z,3413
2023-04-03T12:32:54.124Z,2976
2023-04-03T12:35:18.919Z,3434
2023-04-03T12:37:31.803Z,2494
2023-04-03T12:39:30.660Z,3406
2023-04-03T12:42:17.805Z,3493
2023-04-03T12:44:50.797Z,1755
2023-04-03T12:47:09.774Z,3528
2023-04-03T12:49:14.924Z,3445
2023-04-03T12:52:08.334Z,3482
2023-04-03T12:54:47.523Z,3386
2023-04-03T12:57:12.784Z,3763
2023-04-03T12:59:23.910Z,3390
2023-04-03T13:01:21.100Z,3293
2023-04-03T13:04:06.393Z,3284
2023-04-03T13:06:37.777Z,2526
2023-04-03T13:08:54.697Z,3255
2023-04-03T13:10:58.094Z,3265
2023-04-03T13:13:49.427Z,3225
2023-04-03T13:16:26.969Z,3246
2023-04-03T13:18:50.347Z,3392
2023-04-03T13:20:59.890Z,3223
2023-04-03T13:24:03.789Z,3267
2023-04-03T13:26:41.319Z,3221
2023-04-03T13:29:12.826Z,3210
2023-04-03T13:31:26.237Z,3304
2023-04-03T13:33:28.134Z,3322
2023-04-03T13:36:17.340Z,1482.8
2023-04-03T13:38:53.117Z,3219
2023-04-03T13:41:14.776Z,3214
2023-04-03T13:43:22.482Z,3226
2023-04-03T13:46:18.454Z,3148
2023-04-03T13:49:00.301Z,3171
2023-04-03T13:51:28.112Z,3132
2023-04-03T13:53:41.881Z,3112
2023-04-03T13:55:41.887Z,3098
2023-04-03T13:58:29.764Z,3089
2023-04-03T14:01:03.241Z,3047
2023-04-03T14:03:23.159Z,2983
2023-04-03T14:05:29.092Z,2947
2023-04-03T14:08:29.398Z,2914
2023-04-03T14:11:03.035Z,2880
2023-04-03T14:13:29.032Z,2860
2023-04-03T14:17:39.322Z,2801
2023-04-03T14:22:39.122Z,2773
2023-04-03T14:24:38.413Z,2694
2023-04-03T14:27:25.721Z,2614
2023-04-03T14:29:59.253Z,2640
2023-04-03T14:32:18.548Z,2585
2023-04-03T14:34:23.815Z,2512
2023-04-03T14:37:17.352Z,2460
2023-04-03T14:39:56.784Z,2444
2023-04-03T14:42:22.194Z,2416
2023-04-03T14:44:33.760Z,2364
2023-04-03T14:46:39.034Z,2321
2023-04-03T14:49:16.681Z,2279
2023-04-03T14:51:47.737Z,2217
2023-04-03T14:54:05.322Z,1991
2023-04-03T14:56:08.880Z,2196
2023-04-03T14:59:01.808Z,2114
2023-04-03T15:01:38.361Z,2071
2023-04-03T15:04:02.092Z,2028
2023-04-03T15:06:11.629Z,2009
2023-04-03T15:09:09.591Z,1975
2023-04-03T15:11:53.475Z,1944
2023-04-03T15:14:29.794Z,1906
2023-04-03T15:16:38.929Z,1921
2023-04-03T15:18:40.823Z,1886
2023-04-03T15:21:30.748Z,1735
2023-04-03T15:24:06.594Z,1696
2023-04-03T15:26:28.617Z,1662
2023-04-03T15:28:36.584Z,1644
2023-04-03T15:31:32.613Z,1610.8
2023-04-03T15:34:14.813Z,1582
2023-04-03T15:36:42.965Z,1558.4
2023-04-03T15:38:57.042Z,1530.2
2023-04-03T15:40:57.290Z,1509.7
2023-04-03T15:43:45.150Z,1520
2023-04-03T15:46:19.393Z,1515.5
2023-04-03T15:48:39.532Z,1443.8
2023-04-03T15:50:45.765Z,1429.1
2023-04-03T15:53:40.143Z,1402.2
2023-04-03T15:56:20.398Z,1384.3
2023-04-03T15:58:46.803Z,1358.7
2023-04-03T16:00:59.209Z,1335
2023-04-03T16:02:57.559Z,1324.1
2023-04-03T16:05:44.161Z,1291.8
2023-04-03T16:08:16.618Z,1270
2023-04-03T16:10:35.044Z,1246.4
2023-04-03T16:12:39.601Z,1230.7
2023-04-03T16:15:32.189Z,1207.3
2023-04-03T16:18:10.726Z,1192.9
2023-04-03T16:20:35.162Z,1177.6
2023-04-03T16:22:45.783Z,1182.7
2023-04-03T16:24:42.362Z,1179.8
2023-04-03T16:27:27.038Z,1142.4
2023-04-03T16:29:57.828Z,1114.5
2023-04-03T16:32:14.532Z,1088.9
2023-04-03T16:34:16.743Z,1068.4
2023-04-03T16:37:07.865Z,1034.5
2023-04-03T16:39:44.728Z,1009.2
2023-04-03T16:42:07.559Z,978.2
2023-04-03T16:44:16.536Z,959.6
2023-04-03T16:47:13.631Z,927.6
2023-04-03T16:49:56.658Z,888.9
2023-04-03T16:52:25.524Z,858.5
2023-04-03T16:54:40.543Z,833.2
2023-04-03T16:56:41.496Z,808.6
2023-04-03T16:59:30.632Z,769.6
2023-04-03T17:02:05.739Z,740.4
2023-04-03T17:04:26.861Z,712.6
2023-04-03T17:06:33.991Z,686.4
2023-04-03T17:09:29.294Z,649.9
2023-04-03T17:12:10.536Z,620.4
2023-04-03T17:14:37.781Z,591.3
2023-04-03T17:16:50.925Z,556.9
2023-04-03T17:18:50.219Z,535.8
2023-04-03T17:21:37.541Z,496.1
2023-04-03T17:24:10.843Z,470.7
2023-04-03T17:26:29.890Z,437.9
2023-04-03T17:28:35.050Z,417.6
2023-04-03T17:31:28.438Z,378.7
2023-04-03T17:34:07.979Z,340.4
2023-04-03T17:36:33.464Z,308.8
2023-04-03T17:38:44.816Z,279.7
2023-04-03T17:40:43.584Z,253.2
2023-04-03T17:43:28.075Z,214.4
2023-04-03T17:45:59.910Z,187.4
2023-04-03T17:48:17.311Z,163.04
2023-04-03T17:50:21.041Z,144.48
2023-04-03T17:53:13.528Z,117.92
2023-04-03T17:55:50.526Z,98
2023-04-03T17:58:14.458Z,79.44
2023-04-03T18:00:24.251Z,63.32
2023-04-03T18:03:22.130Z,46.8
2023-04-03T18:06:06.234Z,35.4
2023-04-03T18:08:36.352Z,24.64
2023-04-03T18:10:51.984Z,18.93
2023-04-03T18:12:54.026Z,14.36
2023-04-03T18:15:44.185Z,9.17
2023-04-03T18:18:19.750Z,5.72
2023-04-03T18:20:41.633Z,4.11
2023-04-03T18:22:49.733Z,2.71
2023-04-03T18:25:45.908Z,1.59
2023-04-03T18:28:28.111Z,1.03
2023-04-03T18:30:56.433Z,0.66
2023-04-03T18:33:10.738Z,0.43
2023-04-03T18:35:10.830Z,0.31
2023-04-03T18:37:59.393Z,0.19
2023-04-03T18:40:33.939Z,0.13
2023-04-03T18:42:54.372Z,0.09
2023-04-03T18:45:00.911Z,0.07
2023-04-03T18:47:55.694Z,0.06
2023-04-03T18:50:36.361Z,0.05
2023-04-03T18:53:02.957Z,0.04
2023-04-03T19:09:50.085Z,0.03
2023-04-03T19:12:29.013Z,0.04
2023-04-03T19:14:53.880Z,0.03
2023-04-03T19:19:01.877Z,0.04
2023-04-03T19:24:17.859Z,0.03
2023-04-03T19:41:35.959Z,0.04
2023-04-03T19:44:19.308Z,0.03
2023-04-03T19:46:50.913Z,0.04
2023-04-03T19:49:03.743Z,0.03
2023-04-03T20:28:36.314Z,0.04
2023-04-03T20:33:14.013Z,0.03
2023-04-03T21:03:08.346Z,0.02
2023-04-03T21:07:26.637Z,0.03
2023-04-03T21:25:31.260Z,0.02
2023-04-03T21:27:45.693Z,0.03
2023-04-03T21:35:09.310Z,0.02
2023-04-03T21:37:29.851Z,0.03
2023-04-03T21:42:31.253Z,0.02
2023-04-03T21:45:11.604Z,0.03
2023-04-03T22:04:24.768Z,0.02
2023-04-03T22:07:03.790Z,0.03
2023-04-03T22:11:39.541Z,0.02
2023-04-03T22:16:21.632Z,0.03
2023-04-03T22:18:52.920Z,0.02
2023-04-03T22:21:09.659Z,0.03
2023-04-03T22:26:03.921Z,0.02
2023-04-03T22:28:41.006Z,0.04
2023-04-03T22:33:13.465Z,0.05
2023-04-03T22:36:10.562Z,0.03
2023-04-03T22:38:53.840Z,0.05
2023-04-03T22:41:23.218Z,0.02
2023-04-03T23:32:31.380Z,0.01
2023-04-03T23:35:03.341Z,0.02
2023-04-03T23:47:19.092Z,0.01
2023-04-03T23:52:27.390Z,0.02
2023-04-03T23:57:41.596Z,0.05
2023-04-03T23:59:57.681Z,0.08
